Clearfield, PA

5:35 PM EDT on August 30, 2014 (GMT -0400)
Clearfield-Lawrence | Change Station
CLOSE
Current Station
Airport
Location: Clearfield,
Elevation: 1516 ft
Nearby Weather Stations

Elev 1516 ft 41.05 °N, 78.41 °W | Updated 41 minutes ago

Scattered Clouds
Scattered Clouds
81 °F
Feels Like 84 °F
N
5
Wind Variable Wind from Variable

Today
High -- | Low -- °F
--% Chance of Precip.
Yesterday
High -- | Low -- °F
Precip. -- in
6:38 AM 7:49 PM
Waxing Crescent, 25% visible
Pressure 30.09 in
Visibility 10.0 miles
Clouds Few 3200 ft
Few 4300 ft
Scattered Clouds 11000 ft
Heat Index 84 °F
Dew Point 69 °F
Humidity 67%
Rainfall 0.00 in
Snow Depth Not available.
UV 3 out of 12
Pollen 9.40 out of 12
Air Quality Not available.
Flu Activity Not available.
METAR KFIG 302054Z AUTO VRB04KT 10SM FEW032 FEW043 SCT110 27/21 A3011 RMK AO2 SLP190 T02720206 56014

More Conditions Fewer Conditions

Pressure 30.09 in
Visibility 10.0 miles
Clouds Few 3200 ft
Few 4300 ft
Scattered Clouds 11000 ft
Heat Index 84 °F
Dew Point 69 °F
Humidity 67%
Rainfall 0.00 in
Snow Depth Not available.
UV 3 out of 12
Pollen 9.40 out of 12
Air Quality Not available.
Flu Activity Not available.
METAR KFIG 302054Z AUTO VRB04KT 10SM FEW032 FEW043 SCT110 27/21 A3011 RMK AO2 SLP190 T02720206 56014

More Conditions Fewer Conditions

Nowcast | as of 3:59 PM EDT on August 30, 2014

Isolated showers will sprout and meander northeastward across the region through early evening. Most areas will remain dry.

×

10-Day Weather Forecast

Almanac

Astronomy

Aug. 30, 2014 Rise Set
Actual Time 6:38 AM EDT 7:49 PM EDT
Civil Twilight 6:10 AM EDT 8:17 PM EDT
Nautical Twilight 5:36 AM EDT 8:51 PM EDT
Astronomical Twilight 5:00 AM EDT 9:27 PM EDT
Moon 11:26 AM EDT 10:19 PM EDT
Length of Visible Light 14h 07m
Length of Day
13h 11m
Tomorrow will be 2m 37s shorter.
Waxing Crescent, 25% of the Moon is Illuminated
Today
Waxing Crescent
Sep 2
First Quarter
Sep 8
Full
Sep 15
Last Quarter
Sep 24
New

Today's Extremes

State Highs State Lows

Community

WunderPhotos

Upload Photos

1,748,647 photos uploaded!

WunderBlogs® & News

Nearby

Snow Depth

Station Depth Elevation
No new snow has been reported.

Earthquake Activity

City Distance Mag. Time & Date
No recent earthquake activity has been reported nearby.
Minimum magnitude displayed is 2.5.

Coastal Water Temperatures

Place Temperature
No Stations Reporting

Nearby Weather Stations